Skrydstrup, Denmark
Current Conditions -  °F | °C
As of 2:20 PM on Saturday 22 Nov 2014 (Local Time) from EKSP Reporting Station
Light Rain Light Rain  
Wind Chill: 36°   Ceiling: 2400
Heat Index: 41°   Visibility: 5mi
Dew Point: 37°   Wind: 8mph
Humidity: 87%   Direction: 130°SE
Pressure: 30.18"   Gusts: NA
Location:  55.24°N, 9.25°E
Report Text: EKSP 221320Z 13007KT 8000 -RA BKN024 BKN060 05/03 Q1022
Loading
Personal Weather Stations






























Interactive Weather Map New forecast layout! Learn more

10-Day Weather Forecast

Advertisements
Track Severe Weather on mobile